Weather at Atlantic City International Airport

Public forecast

Using degrees Fahrenheit for public forecast. Weather courtesy of forecast.io.

Current aviation weather report (METAR) for Atlantic City International Airport

Retrieved 2021/01/27 12:54 UTC (14 minutes ago):

KACY 271254Z 31010KT 8SM OVC047 03/01 A3000 RMK AO2 SLP158 T00280011

Aviation forecast (TAF) for Atlantic City International Airport

Retrieved 2021/01/27 12:27 UTC (41 minutes ago):

TAF KACY 271124Z 2712/2812 30010KT P6SM BKN050 FM271400 31012G20KT P6SM SCT050 FM272200 33008KT P6SM SCT050 FM281000 33012G20KT P6SM BKN080